Terminal Aerodrome Forecast
Issued by NWS Wilmington, OH

Current Version | Previous Version | Text Only | Print | Product List | Glossary Off
Versions: 1 2 3 4 5 6 7 8 9 10 11 12 13 14 15 16 17 18 19 20

718
FTUS41 KILN 141747
TAFILN
TAF
KILN 141747Z 1418/1518 15004KT P6SM FEW030 SCT250
     FM150400 12005KT P6SM BKN070
     FM150900 14006KT 2SM -SN OVC020
     FM151200 15007KT 2SM -SN OVC015
     FM151500 17010G18KT P6SM VCSH OVC015=

USA.gov is the U.S. government's official web portal to all federal, state and local government web resources and services.